^^
North Bend WA Weather Station Historical Data
Daily Summary for October 17, 2021 Units:  Both    English   Metric
Daily Weekly Monthly Yearly Custom
  High: Low: Average:
Temperature: 52 °F /  11.1 °C 51 °F /  10.6 °C 51.5 °F /  10.8 °C
Dew Point: 49 °F /  9.4 °C 48 °F /  8.9 °C 49 °F /  9.4 °C
Humidity: 91% 90% 91%
Wind Speed: 3mph /  4.8km/h - 2mph /  3.2km/h
Wind Gust: 8mph /  12.9km/h - -
Wind- - SE
Pressure: 29.78 in /  1008.4 hPa 29.75 in /  1007.3 hPa -
Precipitation: 0 in /  0 mm    
Historical Graphs
 
 
Tabular Data for October 17, 2021
Time Temperature Dew Point Pressure Wind Wind Speed Wind Gust Humidity Rainfall Rate (Hourly) solar
00:04 52 °F /  11.1 °C 49 °F /  9.4 °C 29.78in /  1008.4hPa SE 2mph /  3.2km/h 6mph /  9.7km/h 91% 0in /  0mm 0 W/m2
00:09 52 °F /  11.1 °C 49 °F /  9.4 °C 29.78in /  1008.4hPa SE 2mph /  3.2km/h 6mph /  9.7km/h 91% 0in /  0mm 0 W/m2
00:14 52 °F /  11.1 °C 49 °F /  9.4 °C 29.78in /  1008.4hPa ESE 2mph /  3.2km/h 5mph /  8km/h 91% 0in /  0mm 0 W/m2
00:19 52 °F /  11.1 °C 49 °F /  9.4 °C 29.78in /  1008.4hPa SE 3mph /  4.8km/h 6mph /  9.7km/h 91% 0in /  0mm 0 W/m2
00:24 52 °F /  11.1 °C 49 °F /  9.4 °C 29.78in /  1008.4hPa SE 2mph /  3.2km/h 6mph /  9.7km/h 91% 0in /  0mm 0 W/m2
00:29 52 °F /  11.1 °C 49 °F /  9.4 °C 29.78in /  1008.4hPa SE 2mph /  3.2km/h 7mph /  11.3km/h 91% 0in /  0mm 0 W/m2
00:34 52 °F /  11.1 °C 49 °F /  9.4 °C 29.77in /  1008hPa ESE 2mph /  3.2km/h 7mph /  11.3km/h 91% 0in /  0mm 0 W/m2
00:39 52 °F /  11.1 °C 49 °F /  9.4 °C 29.77in /  1008hPa SE 1mph /  1.6km/h 6mph /  9.7km/h 91% 0in /  0mm 0 W/m2
00:44 52 °F /  11.1 °C 49 °F /  9.4 °C 29.77in /  1008hPa ESE 2mph /  3.2km/h 6mph /  9.7km/h 91% 0in /  0mm 0 W/m2
00:49 52 °F /  11.1 °C 49 °F /  9.4 °C 29.77in /  1008hPa ESE 1mph /  1.6km/h 4mph /  6.4km/h 90% 0in /  0mm 0 W/m2
00:54 52 °F /  11.1 °C 49 °F /  9.4 °C 29.77in /  1008hPa SE 2mph /  3.2km/h 5mph /  8km/h 90% 0in /  0mm 0 W/m2
00:59 52 °F /  11.1 °C 49 °F /  9.4 °C 29.77in /  1008hPa SE 2mph /  3.2km/h 5mph /  8km/h 90% 0in /  0mm 0 W/m2
01:04 52 °F /  11.1 °C 49 °F /  9.4 °C 29.77in /  1008hPa SE 3mph /  4.8km/h 6mph /  9.7km/h 90% 0in /  0mm 0 W/m2
01:09 51 °F /  10.6 °C 49 °F /  9.4 °C 29.77in /  1008hPa SE 2mph /  3.2km/h 6mph /  9.7km/h 91% 0in /  0mm 0 W/m2
01:14 51 °F /  10.6 °C 49 °F /  9.4 °C 29.77in /  1008hPa SSE 3mph /  4.8km/h 8mph /  12.9km/h 91% 0in /  0mm 0 W/m2
01:19 51 °F /  10.6 °C 49 °F /  9.4 °C 29.76in /  1007.7hPa SE 2mph /  3.2km/h 8mph /  12.9km/h 90% 0in /  0mm 0 W/m2
01:24 51 °F /  10.6 °C 49 °F /  9.4 °C 29.76in /  1007.7hPa ESE 1mph /  1.6km/h 5mph /  8km/h 90% 0in /  0mm 0 W/m2
01:29 51 °F /  10.6 °C 49 °F /  9.4 °C 29.76in /  1007.7hPa SE 2mph /  3.2km/h 5mph /  8km/h 91% 0in /  0mm 0 W/m2
01:34 51 °F /  10.6 °C 49 °F /  9.4 °C 29.76in /  1007.7hPa SE 3mph /  4.8km/h 5mph /  8km/h 91% 0in /  0mm 0 W/m2
01:39 51 °F /  10.6 °C 49 °F /  9.4 °C 29.76in /  1007.7hPa SE 2mph /  3.2km/h 5mph /  8km/h 91% 0in /  0mm 0 W/m2
01:44 51 °F /  10.6 °C 49 °F /  9.4 °C 29.76in /  1007.7hPa ESE 2mph /  3.2km/h 5mph /  8km/h 91% 0in /  0mm 0 W/m2
01:49 51 °F /  10.6 °C 49 °F /  9.4 °C 29.76in /  1007.7hPa ESE 1mph /  1.6km/h 5mph /  8km/h 91% 0in /  0mm 0 W/m2
01:54 51 °F /  10.6 °C 49 °F /  9.4 °C 29.75in /  1007.3hPa SE 2mph /  3.2km/h 7mph /  11.3km/h 91% 0in /  0mm 0 W/m2
01:59 51 °F /  10.6 °C 48 °F /  8.9 °C 29.75in /  1007.3hPa ESE 2mph /  3.2km/h 7mph /  11.3km/h 90% 0in /  0mm 0 W/m2
North Bend WA Weather
Compliments of Weather Underground - 12.61 mb